createdAt,value
2019-05-02T00:00:03.389Z,32.97
2019-05-02T00:01:03.385Z,35.91
2019-05-02T00:02:03.026Z,27.51
2019-05-02T00:03:04.350Z,37.39
2019-05-02T00:04:03.129Z,30.24
2019-05-02T00:05:03.184Z,25.43
2019-05-02T00:06:07.305Z,28.9
2019-05-02T00:07:03.072Z,31.29
2019-05-02T00:08:03.553Z,23.82
2019-05-02T00:09:03.853Z,25.86
2019-05-02T00:10:03.319Z,25.86
2019-05-02T00:11:02.713Z,26.78
2019-05-02T00:12:02.810Z,25.84
2019-05-02T00:13:02.920Z,25.84
2019-05-02T00:14:03.637Z,25.28
2019-05-02T00:15:03.540Z,25.28
2019-05-02T00:16:02.692Z,27.25
2019-05-02T00:17:03.763Z,27.05
2019-05-02T00:18:03.475Z,27.2
2019-05-02T00:19:03.740Z,29.55
2019-05-02T00:20:03.793Z,30.12
2019-05-02T00:21:03.369Z,27.74
2019-05-02T00:22:03.426Z,27.68
2019-05-02T00:23:03.221Z,26.32
2019-05-02T00:24:04.205Z,29.38
2019-05-02T00:25:03.603Z,25.26
2019-05-02T00:26:03.554Z,26.7
2019-05-02T00:27:03.291Z,28.81
2019-05-02T00:28:03.523Z,27.62
2019-05-02T00:29:03.165Z,28.68
2019-05-02T00:30:03.375Z,33.12
2019-05-02T00:31:07.342Z,24.43
2019-05-02T00:32:03.122Z,28.56
2019-05-02T00:33:03.105Z,31.92
2019-05-02T00:34:02.924Z,30.25
2019-05-02T00:35:03.115Z,26.36
2019-05-02T00:36:02.633Z,27.59
2019-05-02T00:37:03.433Z,35.22
2019-05-02T00:38:03.805Z,25.71
2019-05-02T00:39:03.156Z,25.52
2019-05-02T00:40:03.063Z,24.72
2019-05-02T00:41:03.639Z,27.39
2019-05-02T00:42:12.287Z,26.89
2019-05-02T00:43:03.470Z,33.78
2019-05-02T00:44:05.969Z,25.45
2019-05-02T00:45:02.857Z,30.24
2019-05-02T00:46:02.805Z,25.68
2019-05-02T00:47:06.001Z,28.46
2019-05-02T00:48:02.776Z,29.29
2019-05-02T00:49:03.592Z,26.95
2019-05-02T00:50:06.130Z,26.2
2019-05-02T00:51:03.236Z,29.73
2019-05-02T00:52:03.600Z,29.58
2019-05-02T00:53:07.065Z,26.74
2019-05-02T00:54:03.332Z,29.96
2019-05-02T00:55:03.401Z,28.56
2019-05-02T00:56:05.029Z,26.49
2019-05-02T00:57:03.138Z,33.94
2019-05-02T00:58:03.338Z,28.52
2019-05-02T00:59:07.323Z,24.75
2019-05-02T01:00:02.974Z,25.48
2019-05-02T01:01:03.736Z,27.4
2019-05-02T01:02:05.289Z,27.4
2019-05-02T01:03:02.820Z,30.52
2019-05-02T01:04:03.152Z,27.09
2019-05-02T01:05:03.433Z,27.09
2019-05-02T01:06:02.861Z,28.72
2019-05-02T01:07:03.592Z,26.75
2019-05-02T01:08:02.975Z,26.75
2019-05-02T01:09:05.759Z,29.44
2019-05-02T01:10:02.794Z,32.65
2019-05-02T01:11:03.135Z,28.91
2019-05-02T01:12:08.262Z,27.23
2019-05-02T01:13:03.822Z,31.25
2019-05-02T01:14:03.726Z,26.96
2019-05-02T01:15:08.195Z,30.41
2019-05-02T01:16:03.292Z,27.84
2019-05-02T01:17:03.430Z,27.61
2019-05-02T01:18:05.980Z,30.74
2019-05-02T01:19:03.115Z,25.84
2019-05-02T01:20:03.145Z,28.72
2019-05-02T01:21:04.167Z,26.39
2019-05-02T01:22:03.328Z,26.24
2019-05-02T01:23:03.113Z,32.22
2019-05-02T01:24:03.251Z,36.75
2019-05-02T01:25:03.166Z,26.24
2019-05-02T01:26:03.047Z,29.18
2019-05-02T01:27:04.484Z,27.78
2019-05-02T01:28:03.046Z,28.48
2019-05-02T01:29:02.789Z,30.02
2019-05-02T01:30:05.856Z,29.91
2019-05-02T01:31:03.749Z,29.94
2019-05-02T01:32:02.823Z,26.38
2019-05-02T01:33:06.331Z,28.89
2019-05-02T01:34:02.869Z,31.91
2019-05-02T01:35:03.620Z,30.48
2019-05-02T01:36:06.210Z,27.36
2019-05-02T01:37:02.838Z,27.76
2019-05-02T01:38:03.365Z,26.97
2019-05-02T01:39:07.479Z,29.23
2019-05-02T01:40:03.676Z,27.34
2019-05-02T01:41:03.629Z,27.04
2019-05-02T01:42:04.073Z,28.39
2019-05-02T01:43:03.474Z,29.78
2019-05-02T01:44:03.392Z,28.06
2019-05-02T01:45:06.695Z,26.02
2019-05-02T01:46:03.567Z,29.14
2019-05-02T01:47:03.395Z,32.47
2019-05-02T01:48:04.904Z,28.48
2019-05-02T01:49:03.009Z,27.87
2019-05-02T01:50:03.427Z,27.87
2019-05-02T01:51:04.245Z,28.92
2019-05-02T01:52:03.159Z,29.19
2019-05-02T01:53:03.115Z,29.19
2019-05-02T01:54:04.890Z,31.26
2019-05-02T01:55:03.104Z,31.26
2019-05-02T01:56:03.082Z,27.1
2019-05-02T01:57:03.865Z,33.55
2019-05-02T01:58:02.867Z,28.69
2019-05-02T01:59:03.563Z,23.53
2019-05-02T02:00:04.111Z,30.42
2019-05-02T02:01:02.671Z,29.72
2019-05-02T02:02:03.673Z,27.42
2019-05-02T02:03:04.102Z,31.35
2019-05-02T02:04:03.423Z,30.03
2019-05-02T02:05:03.678Z,30.03
2019-05-02T02:06:07.911Z,26.41
2019-05-02T02:07:03.529Z,30.99
2019-05-02T02:08:03.773Z,28.26
2019-05-02T02:09:08.118Z,28.02
2019-05-02T02:10:03.622Z,29.91
2019-05-02T02:11:03.146Z,34.27
2019-05-02T02:12:04.881Z,29.93
2019-05-02T02:13:05.164Z,29.92
2019-05-02T02:14:07.202Z,29.97
2019-05-02T02:15:03.121Z,25.69
2019-05-02T02:16:04.298Z,30.55
2019-05-02T02:17:03.037Z,31.49
2019-05-02T02:18:02.982Z,30.72
2019-05-02T02:19:03.915Z,27.45
2019-05-02T02:20:03.059Z,29.96
2019-05-02T02:21:02.941Z,32.46
2019-05-02T02:22:04.375Z,32.69
2019-05-02T02:23:03.712Z,30.9
2019-05-02T02:24:02.895Z,33.08
2019-05-02T02:25:03.005Z,31.49
2019-05-02T02:26:06.681Z,33.18
2019-05-02T02:27:02.560Z,34.16
2019-05-02T02:28:03.274Z,33.55
2019-05-02T02:29:07.677Z,30.34
2019-05-02T02:30:03.652Z,29.89
2019-05-02T02:31:04.603Z,32.32
2019-05-02T02:32:03.747Z,28.99
2019-05-02T02:33:07.329Z,30.19
2019-05-02T02:34:03.701Z,28.41
2019-05-02T02:35:09.198Z,27.65
2019-05-02T02:36:03.465Z,32.18
2019-05-02T02:37:05.252Z,24.74
2019-05-02T02:38:03.710Z,24.74
2019-05-02T02:39:06.809Z,27.51
2019-05-02T02:40:03.655Z,28.61
2019-05-02T02:41:06.322Z,28.61
2019-05-02T02:42:03.181Z,27.81
2019-05-02T02:43:10.049Z,27.81
2019-05-02T02:44:03.334Z,29.61
2019-05-02T02:45:03.650Z,23.92
2019-05-02T02:46:03.181Z,26.92
2019-05-02T02:47:02.933Z,28.55
2019-05-02T02:48:02.985Z,26.05
2019-05-02T02:49:03.173Z,24.41
2019-05-02T02:50:05.215Z,25.97
2019-05-02T02:51:02.825Z,28.21
2019-05-02T02:52:04.673Z,32.21
2019-05-02T02:53:03.353Z,24.38
2019-05-02T02:54:05.452Z,24.85
2019-05-02T02:55:03.964Z,24.54
2019-05-02T02:56:03.817Z,22.94
2019-05-02T02:57:03.521Z,27.53
2019-05-02T02:58:04.644Z,25.89
2019-05-02T02:59:03.431Z,21.98
2019-05-02T03:00:07.406Z,25.46
2019-05-02T03:01:03.495Z,24.66
2019-05-02T03:02:09.789Z,25.82
2019-05-02T03:03:03.451Z,24.31
2019-05-02T03:04:09.072Z,27.25
2019-05-02T03:05:03.161Z,22.97
2019-05-02T03:06:05.331Z,26.46
2019-05-02T03:07:03.361Z,26.24
2019-05-02T03:08:05.266Z,22.47
2019-05-02T03:09:03.136Z,19.38
2019-05-02T03:10:05.942Z,22.93
2019-05-02T03:11:03.128Z,21.39
2019-05-02T03:12:04.494Z,25.48
2019-05-02T03:13:03.000Z,21.06
2019-05-02T03:14:06.766Z,24.62
2019-05-02T03:15:02.600Z,23.12
2019-05-02T03:16:06.777Z,22.7
2019-05-02T03:17:03.025Z,21.38
2019-05-02T03:18:03.917Z,20.42
2019-05-02T03:19:03.562Z,23.42
2019-05-02T03:20:03.795Z,20.15
2019-05-02T03:21:03.483Z,21.83
2019-05-02T03:22:04.035Z,21.24
2019-05-02T03:23:03.644Z,24.71
2019-05-02T03:24:05.744Z,20.66
2019-05-02T03:25:03.867Z,26.81
2019-05-02T03:26:07.769Z,21.59
2019-05-02T03:27:03.628Z,24.67
2019-05-02T03:28:03.274Z,21.12
2019-05-02T03:29:03.626Z,19.18
2019-05-02T03:30:03.586Z,18.63
2019-05-02T03:31:20.837Z,18.63
2019-05-02T03:32:13.958Z,27.28
2019-05-02T03:33:10.140Z,27.28
2019-05-02T03:34:03.255Z,18.8
2019-05-02T03:35:03.339Z,19.06
2019-05-02T03:36:02.931Z,19.06
2019-05-02T03:37:09.856Z,20.26
2019-05-02T03:38:03.029Z,21.91
2019-05-02T03:39:13.186Z,21.91
2019-05-02T03:40:03.944Z,22.84
2019-05-02T03:41:02.971Z,18.67
2019-05-02T03:42:05.061Z,22.59
2019-05-02T03:43:03.599Z,19.18
2019-05-02T03:44:10.949Z,14.89
2019-05-02T03:45:04.843Z,16.71
2019-05-02T03:46:02.833Z,18.07
2019-05-02T03:47:04.909Z,17.41
2019-05-02T03:48:03.768Z,16.74
2019-05-02T03:49:06.969Z,13.81
2019-05-02T03:50:03.671Z,18.14
2019-05-02T03:51:05.150Z,14.92
2019-05-02T03:52:05.686Z,15.98
2019-05-02T03:53:03.356Z,16.28
2019-05-02T03:54:07.134Z,16.38
2019-05-02T03:55:03.434Z,14.28
2019-05-02T03:56:10.206Z,14.58
2019-05-02T03:57:03.338Z,13.14
2019-05-02T03:58:12.764Z,17.12
2019-05-02T03:59:02.950Z,17.65
2019-05-02T04:00:03.172Z,16.53
2019-05-02T04:01:03.835Z,16.25
2019-05-02T04:02:03.115Z,17.13
2019-05-02T04:03:02.707Z,14.68
2019-05-02T04:04:02.607Z,14.04
2019-05-02T04:05:03.925Z,16.01
2019-05-02T04:06:03.915Z,14.62
2019-05-02T04:07:03.401Z,14.61
2019-05-02T04:08:02.673Z,17.09
2019-05-02T04:09:03.576Z,17.09
2019-05-02T04:10:03.844Z,16.65
2019-05-02T04:11:02.910Z,16.29
2019-05-02T04:12:03.007Z,15.46
2019-05-02T04:13:03.591Z,13.62
2019-05-02T04:14:14.570Z,24.31
2019-05-02T04:15:03.848Z,15.17
2019-05-02T04:16:14.274Z,14.62
2019-05-02T04:17:03.371Z,16.98
2019-05-02T04:18:08.291Z,21.2
2019-05-02T04:19:03.563Z,21.2
2019-05-02T04:20:09.184Z,13.64
2019-05-02T04:21:03.528Z,17.32
2019-05-02T04:22:08.367Z,19.48
2019-05-02T04:23:03.465Z,16.91
2019-05-02T04:24:10.703Z,12.94
2019-05-02T04:25:06.296Z,14.77
2019-05-02T04:26:06.622Z,15.27
2019-05-02T04:27:03.168Z,16.46
2019-05-02T04:28:05.735Z,11.94
2019-05-02T04:29:03.034Z,13.79
2019-05-02T04:30:11.023Z,11.92
2019-05-02T04:31:02.951Z,15.14
2019-05-02T04:32:10.733Z,14.05
2019-05-02T04:33:02.982Z,14.53
2019-05-02T04:34:13.480Z,14.6
2019-05-02T04:35:02.853Z,10.62
2019-05-02T04:36:13.394Z,15.77
2019-05-02T04:37:03.942Z,17.24
2019-05-02T04:38:09.837Z,12.6
2019-05-02T04:39:05.605Z,11.62
2019-05-02T04:40:07.880Z,20.74
2019-05-02T04:41:03.449Z,12.88
2019-05-02T04:42:12.770Z,14.41
2019-05-02T04:43:08.027Z,16.19
2019-05-02T04:44:01.989Z,14.5
2019-05-02T04:45:17.258Z,16.57
2019-05-02T04:46:02.117Z,13.73
2019-05-02T04:47:10.763Z,17.15
2019-05-02T04:48:04.108Z,13.39
2019-05-02T04:49:03.118Z,14.17
2019-05-02T04:50:07.442Z,17.42
2019-05-02T04:51:09.670Z,13.29
2019-05-02T04:52:07.648Z,13.29
2019-05-02T04:53:03.196Z,11.73
2019-05-02T04:54:02.935Z,15.66
2019-05-02T04:55:14.191Z,13.81
2019-05-02T04:56:06.784Z,13.44
2019-05-02T04:57:02.911Z,12.38
2019-05-02T04:58:02.781Z,11.81
2019-05-02T04:59:13.687Z,17.8
2019-05-02T05:00:08.330Z,12.46
2019-05-02T05:01:03.565Z,12.68
2019-05-02T05:02:02.785Z,13.77
2019-05-02T05:03:07.029Z,12.41
2019-05-02T05:04:03.424Z,11.41
2019-05-02T05:05:03.630Z,13.32
2019-05-02T05:06:07.844Z,12.21
2019-05-02T05:07:03.849Z,12.21
2019-05-02T05:08:03.584Z,12.15
2019-05-02T05:09:03.947Z,13.56
2019-05-02T05:10:03.766Z,13.56
2019-05-02T05:11:03.721Z,12.25
2019-05-02T05:12:03.385Z,14.31
2019-05-02T05:13:03.505Z,14.31
2019-05-02T05:14:03.379Z,17.02
2019-05-02T05:15:03.193Z,16.94
2019-05-02T05:16:07.472Z,16.94
2019-05-02T05:17:03.408Z,13.68
2019-05-02T05:18:04.342Z,14.63
2019-05-02T05:19:03.244Z,17.55
2019-05-02T05:20:10.335Z,17.74
2019-05-02T05:21:03.224Z,15.42
2019-05-02T05:22:04.633Z,16.66
2019-05-02T05:23:03.222Z,15.85
2019-05-02T05:24:02.866Z,12.67
2019-05-02T05:25:02.853Z,15.89
2019-05-02T05:26:04.734Z,14.52
2019-05-02T05:27:02.989Z,10.71
2019-05-02T05:28:05.800Z,10.57
2019-05-02T05:29:03.046Z,11.5
2019-05-02T05:30:09.277Z,16.73
2019-05-02T05:31:02.817Z,11.6
2019-05-02T05:32:05.561Z,9.62
2019-05-02T05:33:02.722Z,11.2
2019-05-02T05:34:03.050Z,16.05
2019-05-02T05:35:03.170Z,13.48
2019-05-02T05:36:03.344Z,10.98
2019-05-02T05:37:03.488Z,12.73
2019-05-02T05:38:03.535Z,12.34
2019-05-02T05:39:08.270Z,11.85
2019-05-02T05:40:03.309Z,12.94
2019-05-02T05:41:08.767Z,11.04
2019-05-02T05:42:03.592Z,14.36
2019-05-02T05:43:11.940Z,16.34
2019-05-02T05:44:03.579Z,12.52
2019-05-02T05:45:03.641Z,15.78
2019-05-02T05:46:10.509Z,9.59
2019-05-02T05:47:03.473Z,13.88
2019-05-02T05:48:03.349Z,11.95
2019-05-02T05:49:03.318Z,12.44
2019-05-02T05:50:03.329Z,14.4
2019-05-02T05:51:03.216Z,13.56
2019-05-02T05:52:04.048Z,14.01
2019-05-02T05:53:03.105Z,12.35
2019-05-02T05:54:03.366Z,17.94
2019-05-02T05:55:04.949Z,10.71
2019-05-02T05:56:03.121Z,12.99
2019-05-02T05:57:02.989Z,13.41
2019-05-02T05:58:12.058Z,13.41
2019-05-02T05:59:02.803Z,13.44
2019-05-02T06:00:03.654Z,12.01
2019-05-02T06:01:03.084Z,12.01
2019-05-02T06:02:05.354Z,13.88
2019-05-02T06:03:11.331Z,15.14
2019-05-02T06:04:03.628Z,15.14
2019-05-02T06:05:03.869Z,14.58
2019-05-02T06:06:03.641Z,13.04
2019-05-02T06:07:03.356Z,16.44
2019-05-02T06:08:02.866Z,11.92
2019-05-02T06:09:03.724Z,15.2
2019-05-02T06:10:07.660Z,10.78
2019-05-02T06:11:03.297Z,15.31
2019-05-02T06:12:04.091Z,13.27
2019-05-02T06:13:05.134Z,13.48
2019-05-02T06:14:03.102Z,15.81
2019-05-02T06:15:03.775Z,11.55
2019-05-02T06:16:03.695Z,13.12
2019-05-02T06:17:03.339Z,16.94
2019-05-02T06:18:04.686Z,15.86
2019-05-02T06:19:03.222Z,14.21
2019-05-02T06:20:03.205Z,12.85
2019-05-02T06:21:08.559Z,11.55
2019-05-02T06:22:03.102Z,13.14
2019-05-02T06:23:03.095Z,12.35
2019-05-02T06:24:02.917Z,11.75
2019-05-02T06:25:07.935Z,11.13
2019-05-02T06:26:07.621Z,11.02
2019-05-02T06:27:02.827Z,10.87
2019-05-02T06:28:05.162Z,17.85
2019-05-02T06:29:03.069Z,11.93
2019-05-02T06:30:03.676Z,12.58
2019-05-02T06:31:07.129Z,12.15
2019-05-02T06:32:03.741Z,16.33
2019-05-02T06:33:03.691Z,15.44
2019-05-02T06:34:06.943Z,15.7
2019-05-02T06:35:03.758Z,12.45
2019-05-02T06:36:03.536Z,12.56
2019-05-02T06:37:03.299Z,12.49
2019-05-02T06:38:03.096Z,10.96
2019-05-02T06:39:03.261Z,11.78
2019-05-02T06:40:07.956Z,12.6
2019-05-02T06:41:03.209Z,14.98
2019-05-02T06:42:03.309Z,13.86
2019-05-02T06:43:04.148Z,16.57
2019-05-02T06:44:03.224Z,12.96
2019-05-02T06:45:02.990Z,15.46
2019-05-02T06:46:15.355Z,11.03
2019-05-02T06:47:04.155Z,11.03
2019-05-02T06:48:03.366Z,11.73
2019-05-02T06:49:03.161Z,11.91
2019-05-02T06:50:03.523Z,13.57
2019-05-02T06:51:03.277Z,16.59
2019-05-02T06:52:02.967Z,12.39
2019-05-02T06:53:04.238Z,13.65
2019-05-02T06:54:02.787Z,13.24
2019-05-02T06:55:03.053Z,10.07
2019-05-02T06:56:03.220Z,15.97
2019-05-02T06:57:03.154Z,19.12
2019-05-02T06:58:07.722Z,11.92
2019-05-02T06:59:03.129Z,16.21
2019-05-02T07:00:03.006Z,13.98
2019-05-02T07:01:02.971Z,11.18
2019-05-02T07:02:02.736Z,15.54
2019-05-02T07:03:04.892Z,13.54
2019-05-02T07:04:04.396Z,11.97
2019-05-02T07:05:04.012Z,13.94
2019-05-02T07:06:04.257Z,11.01
2019-05-02T07:07:03.921Z,12.72
2019-05-02T07:08:06.333Z,15.09
2019-05-02T07:09:03.565Z,11.86
2019-05-02T07:10:03.547Z,18.22
2019-05-02T07:11:03.490Z,11.06
2019-05-02T07:12:03.322Z,13.11
2019-05-02T07:13:10.607Z,11.62
2019-05-02T07:14:12.837Z,15.01
2019-05-02T07:15:03.811Z,13.05
2019-05-02T07:16:03.698Z,12.95
2019-05-02T07:17:05.607Z,16.04
2019-05-02T07:18:05.302Z,12.54
2019-05-02T07:19:03.288Z,11.81
2019-05-02T07:20:03.774Z,15.45
2019-05-02T07:21:03.384Z,13.06
2019-05-02T07:22:04.316Z,19.27
2019-05-02T07:23:03.136Z,13.31
2019-05-02T07:24:02.926Z,17.45
2019-05-02T07:25:06.802Z,17.75
2019-05-02T07:26:02.673Z,15.83
2019-05-02T07:27:03.360Z,14.1
2019-05-02T07:28:04.537Z,15.45
2019-05-02T07:29:02.889Z,11.44
2019-05-02T07:30:02.747Z,11.17
2019-05-02T07:31:06.420Z,13.24
2019-05-02T07:32:03.746Z,20.07
2019-05-02T07:33:03.509Z,21.53
2019-05-02T07:34:02.843Z,18.07
2019-05-02T07:35:03.545Z,11.26
2019-05-02T07:36:03.573Z,16.42
2019-05-02T07:37:08.323Z,10.62
2019-05-02T07:38:03.932Z,10.62
2019-05-02T07:39:06.108Z,12.68
2019-05-02T07:40:03.240Z,14.42
2019-05-02T07:41:03.371Z,14.42
2019-05-02T07:42:05.734Z,14.04
2019-05-02T07:43:03.409Z,15.78
2019-05-02T07:44:04.432Z,15.78
2019-05-02T07:45:04.244Z,11.46
2019-05-02T07:46:03.244Z,19.13
2019-05-02T07:47:04.674Z,17.64
2019-05-02T07:48:03.232Z,11.09
2019-05-02T07:49:03.433Z,11.51
2019-05-02T07:50:05.204Z,16.68
2019-05-02T07:51:03.274Z,13.82
2019-05-02T07:52:03.057Z,14.88
2019-05-02T07:53:04.297Z,11.01
2019-05-02T07:54:02.986Z,14.37
2019-05-02T07:55:06.243Z,12.44
2019-05-02T07:56:03.206Z,12.72
2019-05-02T07:57:03.230Z,17.21
2019-05-02T07:58:06.814Z,15.54
2019-05-02T07:59:02.984Z,13.55
2019-05-02T08:00:03.592Z,12.8
2019-05-02T08:01:02.474Z,12.08
2019-05-02T08:02:04.287Z,15.09
2019-05-02T08:03:05.091Z,16.38
2019-05-02T08:04:04.720Z,12.76
2019-05-02T08:05:03.832Z,15.23
2019-05-02T08:06:03.776Z,16.88
2019-05-02T08:07:03.156Z,17.86
2019-05-02T08:08:03.548Z,14.08
2019-05-02T08:09:07.039Z,15.22
2019-05-02T08:10:03.651Z,14.38
2019-05-02T08:11:03.365Z,13.65
2019-05-02T08:12:03.574Z,18.49
2019-05-02T08:13:03.418Z,14.42
2019-05-02T08:14:03.163Z,11.83
2019-05-02T08:15:07.318Z,17.09
2019-05-02T08:16:03.209Z,12
2019-05-02T08:17:05.560Z,15.92
2019-05-02T08:18:03.017Z,16.89
2019-05-02T08:19:05.358Z,16.25
2019-05-02T08:20:05.056Z,9.84
2019-05-02T08:21:02.944Z,13.98
2019-05-02T08:22:04.104Z,18.15
2019-05-02T08:23:02.969Z,11.34
2019-05-02T08:24:03.671Z,14.31
2019-05-02T08:25:03.651Z,12.81
2019-05-02T08:26:03.183Z,16.52
2019-05-02T08:27:03.001Z,16.52
2019-05-02T08:28:04.617Z,12.28
2019-05-02T08:29:02.980Z,19.13
2019-05-02T08:30:04.545Z,16.45
2019-05-02T08:31:03.631Z,17.24
2019-05-02T08:32:02.889Z,12.69
2019-05-02T08:33:03.559Z,17.67
2019-05-02T08:34:05.139Z,14.35
2019-05-02T08:35:03.563Z,16.31
2019-05-02T08:36:03.621Z,16.82
2019-05-02T08:37:04.755Z,12.51
2019-05-02T08:38:03.452Z,10.46
2019-05-02T08:39:03.105Z,13.69
2019-05-02T08:40:05.287Z,12.99
2019-05-02T08:41:03.472Z,13.03
2019-05-02T08:42:02.955Z,12.52
2019-05-02T08:43:08.608Z,10.9
2019-05-02T08:44:03.130Z,12.98
2019-05-02T08:45:03.127Z,10.64
2019-05-02T08:46:02.948Z,13.19
2019-05-02T08:47:03.003Z,23.65
2019-05-02T08:48:05.074Z,15.79
2019-05-02T08:49:02.528Z,17.37
2019-05-02T08:50:02.796Z,13.25
2019-05-02T08:51:03.611Z,15.04
2019-05-02T08:52:03.590Z,18.76
2019-05-02T08:53:03.369Z,14.39
2019-05-02T08:54:03.747Z,13.06
2019-05-02T08:55:04.282Z,12.92
2019-05-02T08:56:03.387Z,14.13
2019-05-02T08:57:03.383Z,11.78
2019-05-02T08:58:06.080Z,17.09
2019-05-02T08:59:03.244Z,15.51
2019-05-02T09:00:03.750Z,12.56
2019-05-02T09:01:03.009Z,13.14
2019-05-02T09:02:03.677Z,15.45
2019-05-02T09:03:04.727Z,16.53
2019-05-02T09:04:03.014Z,10.22
2019-05-02T09:05:04.487Z,12.96
2019-05-02T09:06:05.762Z,13.29
2019-05-02T09:07:03.212Z,11.98
2019-05-02T09:08:02.843Z,13.41
2019-05-02T09:09:02.912Z,16.3
2019-05-02T09:10:05.623Z,11.19
2019-05-02T09:11:02.705Z,13.06
2019-05-02T09:12:12.111Z,14.06
2019-05-02T09:13:02.886Z,14.92
2019-05-02T09:14:02.775Z,14.92
2019-05-02T09:15:02.837Z,12.09
2019-05-02T09:16:05.904Z,12.6
2019-05-02T09:17:08.046Z,12.6
2019-05-02T09:18:03.842Z,11.08
2019-05-02T09:19:03.177Z,12.81
2019-05-02T09:20:10.533Z,15.02
2019-05-02T09:21:03.296Z,10.37
2019-05-02T09:22:07.438Z,11.64
2019-05-02T09:23:03.346Z,11.42
2019-05-02T09:24:03.498Z,11.49
2019-05-02T09:25:03.216Z,15.2
2019-05-02T09:26:03.115Z,12.37
2019-05-02T09:27:03.656Z,12.64
2019-05-02T09:28:03.416Z,13.28
2019-05-02T09:29:05.334Z,9.34
2019-05-02T09:30:03.217Z,12.52
2019-05-02T09:31:06.585Z,18.17
2019-05-02T09:32:02.986Z,11.95
2019-05-02T09:33:06.439Z,11.99
2019-05-02T09:34:02.881Z,12.56
2019-05-02T09:35:06.113Z,14.62
2019-05-02T09:36:03.013Z,15.36
2019-05-02T09:37:02.885Z,12.33
2019-05-02T09:38:02.629Z,12.58
2019-05-02T09:39:03.020Z,10.75
2019-05-02T09:40:06.740Z,11.56
2019-05-02T09:41:15.276Z,12.86
2019-05-02T09:42:06.548Z,14.52
2019-05-02T09:43:04.748Z,11.46
2019-05-02T09:44:03.487Z,12.36
2019-05-02T09:45:03.628Z,12.09
2019-05-02T09:46:07.209Z,11.15
2019-05-02T09:47:03.588Z,13.05
2019-05-02T09:48:06.980Z,10.3
2019-05-02T09:49:09.466Z,15.55
2019-05-02T09:50:03.762Z,10.2
2019-05-02T09:51:10.205Z,22.61
2019-05-02T09:52:03.551Z,11.71
2019-05-02T09:53:03.476Z,11.71
2019-05-02T09:54:06.277Z,12.49
2019-05-02T09:55:03.428Z,13.06
2019-05-02T09:56:03.385Z,13.06
2019-05-02T09:57:02.992Z,12.17
2019-05-02T09:58:02.896Z,9.59
2019-05-02T09:59:22.912Z,9.59
2019-05-02T10:00:03.422Z,12.34
2019-05-02T10:01:03.004Z,13.34
2019-05-02T10:02:03.108Z,13.71
2019-05-02T10:03:03.275Z,12.6
2019-05-02T10:04:03.224Z,11.01
2019-05-02T10:05:03.245Z,10.41
2019-05-02T10:06:03.346Z,10.1
2019-05-02T10:07:03.243Z,12.15
2019-05-02T10:08:06.664Z,15.62
2019-05-02T10:09:02.945Z,14.1
2019-05-02T10:10:06.493Z,13.12
2019-05-02T10:11:03.766Z,16.59
2019-05-02T10:12:02.762Z,11.94
2019-05-02T10:13:02.918Z,12.1
2019-05-02T10:14:02.855Z,15.93
2019-05-02T10:15:03.871Z,12.23
2019-05-02T10:16:02.640Z,12.78
2019-05-02T10:17:07.033Z,11.49
2019-05-02T10:18:10.372Z,9.63
2019-05-02T10:19:09.209Z,9.12
2019-05-02T10:20:02.791Z,14.52
2019-05-02T10:21:03.166Z,14.06
2019-05-02T10:22:02.643Z,13.19
2019-05-02T10:23:03.539Z,10.06
2019-05-02T10:24:03.906Z,8.76
2019-05-02T10:25:03.881Z,13.19
2019-05-02T10:26:03.445Z,12.3
2019-05-02T10:27:08.322Z,11.17
2019-05-02T10:28:03.473Z,15.46
2019-05-02T10:29:03.594Z,12.16
2019-05-02T10:30:11.696Z,10.09
2019-05-02T10:31:03.583Z,10.09
2019-05-02T10:32:07.423Z,11.49
2019-05-02T10:33:03.512Z,11.49
2019-05-02T10:34:03.367Z,11.37
2019-05-02T10:35:03.329Z,10.82
2019-05-02T10:36:03.230Z,9.38
2019-05-02T10:37:03.285Z,10.29
2019-05-02T10:38:03.268Z,13.15
2019-05-02T10:39:03.073Z,14.96
2019-05-02T10:40:03.185Z,10.15
2019-05-02T10:41:04.701Z,12.27
2019-05-02T10:42:02.912Z,17.72
2019-05-02T10:43:02.978Z,9.42
2019-05-02T10:44:03.120Z,8.82
2019-05-02T10:45:02.872Z,13.29
2019-05-02T10:46:03.484Z,8.49
2019-05-02T10:47:03.506Z,8.49
2019-05-02T10:48:02.969Z,10.11
2019-05-02T10:49:02.940Z,8.27
2019-05-02T10:50:03.457Z,8.34
2019-05-02T10:51:03.427Z,11.55
2019-05-02T10:52:03.486Z,10.55
2019-05-02T10:53:10.974Z,11.61
2019-05-02T10:54:03.508Z,11.29
2019-05-02T10:55:03.631Z,12.27
2019-05-02T10:56:03.345Z,8.8
2019-05-02T10:57:03.211Z,9.39
2019-05-02T10:58:31.146Z,15.11
2019-05-02T10:59:03.352Z,14.75
2019-05-02T11:00:03.322Z,14.11
2019-05-02T11:01:03.350Z,10.29
2019-05-02T11:02:03.552Z,7.5
2019-05-02T11:03:02.894Z,9.88
2019-05-02T11:04:03.323Z,9.88
2019-05-02T11:05:03.068Z,15.53
2019-05-02T11:06:07.391Z,9.71
2019-05-02T11:07:02.786Z,9.71
2019-05-02T11:08:06.117Z,11.49
2019-05-02T11:09:03.140Z,11.49
2019-05-02T11:10:06.617Z,9.85
2019-05-02T11:11:05.851Z,7.26
2019-05-02T11:12:02.795Z,10.2
2019-05-02T11:13:03.766Z,10.62
2019-05-02T11:14:05.571Z,12.19
2019-05-02T11:15:02.857Z,10.52
2019-05-02T11:16:03.527Z,9.14
2019-05-02T11:17:03.396Z,8.75
2019-05-02T11:18:03.578Z,12.16
2019-05-02T11:19:03.363Z,7.92
2019-05-02T11:20:03.296Z,10.49
2019-05-02T11:21:08.070Z,13.63
2019-05-02T11:22:03.497Z,8.72
2019-05-02T11:23:03.362Z,15.69
2019-05-02T11:24:02.941Z,9.91
2019-05-02T11:25:03.531Z,9.79
2019-05-02T11:26:03.456Z,8.54
2019-05-02T11:27:03.161Z,8.09
2019-05-02T11:28:07.026Z,12.79
2019-05-02T11:29:03.398Z,9.63
2019-05-02T11:30:03.303Z,10.18
2019-05-02T11:31:06.506Z,8.59
2019-05-02T11:32:03.097Z,10.38
2019-05-02T11:33:03.228Z,8.28
2019-05-02T11:34:03.148Z,13.03
2019-05-02T11:35:03.336Z,11.06
2019-05-02T11:36:03.153Z,13.35
2019-05-02T11:37:02.856Z,12.35
2019-05-02T11:38:02.722Z,16.1
2019-05-02T11:39:12.281Z,10.75
2019-05-02T11:40:05.764Z,10.68
2019-05-02T11:41:03.706Z,9.7
2019-05-02T11:42:02.855Z,9.7
2019-05-02T11:43:06.730Z,15.25
2019-05-02T11:44:13.311Z,11.32
2019-05-02T11:45:03.625Z,11.32
2019-05-02T11:46:07.168Z,9.63
2019-05-02T11:47:03.482Z,16.69
2019-05-02T11:48:09.038Z,10.18
2019-05-02T11:49:03.376Z,11.28
2019-05-02T11:50:03.263Z,8.57
2019-05-02T11:51:07.281Z,12.17
2019-05-02T11:52:04.626Z,15.32
2019-05-02T11:53:07.373Z,8.66
2019-05-02T11:54:04.912Z,8.03
2019-05-02T11:55:03.420Z,12.2
2019-05-02T11:56:07.315Z,10.29
2019-05-02T11:57:03.151Z,10.24
2019-05-02T11:58:08.059Z,9.7
2019-05-02T11:59:03.905Z,11.51
2019-05-02T12:00:04.774Z,9.87
2019-05-02T12:01:05.314Z,14.95
2019-05-02T12:02:03.637Z,7.81
2019-05-02T12:03:03.718Z,8.91
2019-05-02T12:04:07.511Z,10.38
2019-05-02T12:05:03.454Z,8.16
2019-05-02T12:06:06.551Z,12.36
2019-05-02T12:07:04.783Z,9.55
2019-05-02T12:08:07.680Z,6.81
2019-05-02T12:09:03.501Z,9.82
2019-05-02T12:10:04.686Z,8.55
2019-05-02T12:11:03.859Z,8.78
2019-05-02T12:12:03.227Z,9.09
2019-05-02T12:13:06.513Z,8.35
2019-05-02T12:14:02.876Z,12.39
2019-05-02T12:15:03.085Z,9.77
2019-05-02T12:16:03.397Z,12.92
2019-05-02T12:17:03.401Z,12.41
2019-05-02T12:18:03.119Z,8.18
2019-05-02T12:19:11.201Z,11.46
2019-05-02T12:20:03.328Z,11.46
2019-05-02T12:21:03.028Z,7.56
2019-05-02T12:22:07.093Z,7.39
2019-05-02T12:23:03.753Z,7.39
2019-05-02T12:24:02.919Z,9.16
2019-05-02T12:25:03.887Z,13.97
2019-05-02T12:26:03.758Z,10.11
2019-05-02T12:27:03.795Z,7.59
2019-05-02T12:28:03.499Z,7.48
2019-05-02T12:29:03.462Z,9.97
2019-05-02T12:30:03.655Z,8.84
2019-05-02T12:31:03.515Z,9.39
2019-05-02T12:32:03.491Z,11.64
2019-05-02T12:33:03.583Z,9.54
2019-05-02T12:34:03.361Z,8.68
2019-05-02T12:35:47.758Z,8.31
2019-05-02T12:36:02.718Z,8.31
2019-05-02T12:37:03.470Z,11.65
2019-05-02T12:38:03.365Z,8.68
2019-05-02T12:39:03.234Z,15.15
2019-05-02T12:40:02.912Z,13.44
2019-05-02T12:41:03.030Z,12.26
2019-05-02T12:42:03.657Z,11.68
2019-05-02T12:44:02.857Z,10.39
2019-05-02T12:45:03.014Z,9.87
2019-05-02T12:46:03.634Z,12.09
2019-05-02T12:47:02.847Z,10.27
2019-05-02T12:48:02.810Z,8.99
2019-05-02T12:49:03.092Z,7.58
2019-05-02T12:50:03.854Z,10.47
2019-05-02T12:51:03.694Z,9.51
2019-05-02T12:52:03.794Z,13.96
2019-05-02T12:53:03.415Z,7.86
2019-05-02T12:54:03.571Z,11.92
2019-05-02T12:55:03.673Z,9.62
2019-05-02T12:56:03.536Z,11.81
2019-05-02T12:57:03.492Z,7.19